sensor_id;sensor_type;location;lat;lon;timestamp;P1;durP1;ratioP1;P2;durP2;ratioP2
19456;SDS011;9867;48.094;11.478;2023-05-07T00:01:05;3.93;;;3.57;;
19456;SDS011;9867;48.094;11.478;2023-05-07T00:03:33;5.17;;;3.10;;
19456;SDS011;9867;48.094;11.478;2023-05-07T00:06:02;5.00;;;2.93;;
19456;SDS011;9867;48.094;11.478;2023-05-07T00:08:30;4.33;;;3.30;;
19456;SDS011;9867;48.094;11.478;2023-05-07T00:10:59;3.30;;;3.07;;
19456;SDS011;9867;48.094;11.478;2023-05-07T00:13:27;5.50;;;3.40;;
19456;SDS011;9867;48.094;11.478;2023-05-07T00:15:57;3.33;;;3.03;;
19456;SDS011;9867;48.094;11.478;2023-05-07T00:18:27;3.63;;;2.93;;
19456;SDS011;9867;48.094;11.478;2023-05-07T00:20:55;4.53;;;3.17;;
19456;SDS011;9867;48.094;11.478;2023-05-07T00:23:24;4.30;;;3.07;;
19456;SDS011;9867;48.094;11.478;2023-05-07T00:25:54;4.50;;;3.40;;
19456;SDS011;9867;48.094;11.478;2023-05-07T00:28:23;3.77;;;3.10;;
19456;SDS011;9867;48.094;11.478;2023-05-07T00:30:51;3.40;;;3.20;;
19456;SDS011;9867;48.094;11.478;2023-05-07T00:36:02;4.07;;;3.40;;
19456;SDS011;9867;48.094;11.478;2023-05-07T00:38:31;5.23;;;3.40;;
19456;SDS011;9867;48.094;11.478;2023-05-07T00:40:59;3.80;;;3.37;;
19456;SDS011;9867;48.094;11.478;2023-05-07T00:43:29;4.27;;;3.33;;
19456;SDS011;9867;48.094;11.478;2023-05-07T00:45:58;4.53;;;3.43;;
19456;SDS011;9867;48.094;11.478;2023-05-07T00:48:26;5.00;;;3.40;;
19456;SDS011;9867;48.094;11.478;2023-05-07T00:50:54;3.63;;;3.30;;
19456;SDS011;9867;48.094;11.478;2023-05-07T00:53:23;5.13;;;3.77;;
19456;SDS011;9867;48.094;11.478;2023-05-07T00:55:52;3.57;;;3.27;;
19456;SDS011;9867;48.094;11.478;2023-05-07T00:58:21;3.40;;;3.20;;
19456;SDS011;9867;48.094;11.478;2023-05-07T01:00:50;4.13;;;3.33;;
19456;SDS011;9867;48.094;11.478;2023-05-07T01:03:18;4.17;;;3.07;;
19456;SDS011;9867;48.094;11.478;2023-05-07T01:05:46;3.30;;;3.00;;
19456;SDS011;9867;48.094;11.478;2023-05-07T01:08:16;5.30;;;3.40;;
19456;SDS011;9867;48.094;11.478;2023-05-07T01:10:45;4.00;;;3.10;;
19456;SDS011;9867;48.094;11.478;2023-05-07T01:13:14;3.30;;;3.03;;
19456;SDS011;9867;48.094;11.478;2023-05-07T01:15:43;5.10;;;3.17;;
19456;SDS011;9867;48.094;11.478;2023-05-07T01:18:16;3.50;;;3.20;;
19456;SDS011;9867;48.094;11.478;2023-05-07T01:20:44;3.33;;;3.03;;
19456;SDS011;9867;48.094;11.478;2023-05-07T01:23:14;3.97;;;2.90;;
19456;SDS011;9867;48.094;11.478;2023-05-07T01:25:42;4.83;;;3.10;;
19456;SDS011;9867;48.094;11.478;2023-05-07T01:28:10;4.60;;;3.30;;
19456;SDS011;9867;48.094;11.478;2023-05-07T01:30:41;3.47;;;2.90;;
19456;SDS011;9867;48.094;11.478;2023-05-07T01:33:14;4.00;;;3.10;;
19456;SDS011;9867;48.094;11.478;2023-05-07T01:35:47;7.80;;;3.03;;
19456;SDS011;9867;48.094;11.478;2023-05-07T01:38:19;4.60;;;3.00;;
19456;SDS011;9867;48.094;11.478;2023-05-07T01:40:49;5.17;;;3.10;;
19456;SDS011;9867;48.094;11.478;2023-05-07T01:43:18;3.30;;;2.90;;
19456;SDS011;9867;48.094;11.478;2023-05-07T01:45:46;3.70;;;3.00;;
19456;SDS011;9867;48.094;11.478;2023-05-07T01:48:15;3.00;;;2.80;;
19456;SDS011;9867;48.094;11.478;2023-05-07T01:50:43;3.20;;;2.80;;
19456;SDS011;9867;48.094;11.478;2023-05-07T01:53:12;3.17;;;2.90;;
19456;SDS011;9867;48.094;11.478;2023-05-07T01:55:42;3.50;;;3.07;;
19456;SDS011;9867;48.094;11.478;2023-05-07T01:58:10;3.53;;;3.23;;
19456;SDS011;9867;48.094;11.478;2023-05-07T02:00:39;4.20;;;2.80;;
19456;SDS011;9867;48.094;11.478;2023-05-07T02:03:08;5.70;;;3.03;;
19456;SDS011;9867;48.094;11.478;2023-05-07T02:05:43;4.83;;;3.00;;
19456;SDS011;9867;48.094;11.478;2023-05-07T02:08:19;5.27;;;3.00;;
19456;SDS011;9867;48.094;11.478;2023-05-07T02:10:48;3.40;;;3.10;;
19456;SDS011;9867;48.094;11.478;2023-05-07T02:13:16;3.30;;;3.00;;
19456;SDS011;9867;48.094;11.478;2023-05-07T02:15:44;4.93;;;2.83;;
19456;SDS011;9867;48.094;11.478;2023-05-07T02:18:16;3.67;;;3.23;;
19456;SDS011;9867;48.094;11.478;2023-05-07T02:20:44;4.33;;;3.00;;
19456;SDS011;9867;48.094;11.478;2023-05-07T02:23:12;4.43;;;2.93;;
19456;SDS011;9867;48.094;11.478;2023-05-07T02:25:40;3.60;;;3.10;;
19456;SDS011;9867;48.094;11.478;2023-05-07T02:28:09;3.50;;;2.93;;
19456;SDS011;9867;48.094;11.478;2023-05-07T02:30:47;7.70;;;3.60;;
19456;SDS011;9867;48.094;11.478;2023-05-07T02:33:15;3.50;;;3.23;;
19456;SDS011;9867;48.094;11.478;2023-05-07T02:35:43;5.50;;;3.30;;
19456;SDS011;9867;48.094;11.478;2023-05-07T02:38:13;4.07;;;3.37;;
19456;SDS011;9867;48.094;11.478;2023-05-07T02:40:42;4.97;;;3.13;;
19456;SDS011;9867;48.094;11.478;2023-05-07T02:43:11;3.27;;;2.93;;
19456;SDS011;9867;48.094;11.478;2023-05-07T02:45:42;3.33;;;2.97;;
19456;SDS011;9867;48.094;11.478;2023-05-07T02:48:11;4.03;;;3.17;;
19456;SDS011;9867;48.094;11.478;2023-05-07T02:50:39;11.03;;;9.27;;
19456;SDS011;9867;48.094;11.478;2023-05-07T02:53:07;5.00;;;4.50;;
19456;SDS011;9867;48.094;11.478;2023-05-07T02:55:35;5.93;;;4.07;;
19456;SDS011;9867;48.094;11.478;2023-05-07T02:58:03;3.83;;;3.53;;
19456;SDS011;9867;48.094;11.478;2023-05-07T03:00:35;4.10;;;3.43;;
19456;SDS011;9867;48.094;11.478;2023-05-07T03:03:23;6.57;;;5.97;;
19456;SDS011;9867;48.094;11.478;2023-05-07T03:05:52;6.13;;;5.60;;
19456;SDS011;9867;48.094;11.478;2023-05-07T03:08:19;5.10;;;4.40;;
19456;SDS011;9867;48.094;11.478;2023-05-07T03:10:47;6.33;;;5.37;;
19456;SDS011;9867;48.094;11.478;2023-05-07T03:13:15;4.60;;;3.53;;
19456;SDS011;9867;48.094;11.478;2023-05-07T03:15:45;3.50;;;3.20;;
19456;SDS011;9867;48.094;11.478;2023-05-07T03:18:13;3.10;;;2.90;;
19456;SDS011;9867;48.094;11.478;2023-05-07T03:20:41;4.27;;;3.30;;
19456;SDS011;9867;48.094;11.478;2023-05-07T03:23:09;5.33;;;2.90;;
19456;SDS011;9867;48.094;11.478;2023-05-07T03:25:37;3.70;;;2.77;;
19456;SDS011;9867;48.094;11.478;2023-05-07T03:28:05;4.87;;;2.60;;
19456;SDS011;9867;48.094;11.478;2023-05-07T03:30:41;5.13;;;2.73;;
19456;SDS011;9867;48.094;11.478;2023-05-07T03:33:10;3.90;;;2.80;;
19456;SDS011;9867;48.094;11.478;2023-05-07T03:35:38;2.87;;;2.67;;
19456;SDS011;9867;48.094;11.478;2023-05-07T03:38:06;2.67;;;2.40;;
19456;SDS011;9867;48.094;11.478;2023-05-07T03:40:35;3.60;;;2.87;;
19456;SDS011;9867;48.094;11.478;2023-05-07T03:43:04;2.90;;;2.70;;
19456;SDS011;9867;48.094;11.478;2023-05-07T03:45:35;3.20;;;2.90;;
19456;SDS011;9867;48.094;11.478;2023-05-07T03:48:12;3.87;;;2.87;;
19456;SDS011;9867;48.094;11.478;2023-05-07T03:50:41;3.40;;;2.70;;
19456;SDS011;9867;48.094;11.478;2023-05-07T03:53:09;4.07;;;3.03;;
19456;SDS011;9867;48.094;11.478;2023-05-07T03:55:38;3.13;;;2.90;;
19456;SDS011;9867;48.094;11.478;2023-05-07T03:58:06;5.73;;;3.03;;
19456;SDS011;9867;48.094;11.478;2023-05-07T04:00:34;3.13;;;2.83;;
19456;SDS011;9867;48.094;11.478;2023-05-07T04:03:15;6.80;;;6.10;;
19456;SDS011;9867;48.094;11.478;2023-05-07T04:05:43;5.67;;;3.50;;
19456;SDS011;9867;48.094;11.478;2023-05-07T04:08:11;3.80;;;3.00;;
19456;SDS011;9867;48.094;11.478;2023-05-07T04:10:42;3.57;;;2.90;;
19456;SDS011;9867;48.094;11.478;2023-05-07T04:13:10;3.63;;;3.00;;
19456;SDS011;9867;48.094;11.478;2023-05-07T04:15:38;5.20;;;3.00;;
19456;SDS011;9867;48.094;11.478;2023-05-07T04:18:09;5.63;;;2.90;;
19456;SDS011;9867;48.094;11.478;2023-05-07T04:20:39;3.43;;;3.07;;
19456;SDS011;9867;48.094;11.478;2023-05-07T04:23:10;3.67;;;3.10;;
19456;SDS011;9867;48.094;11.478;2023-05-07T04:25:39;4.03;;;2.97;;
19456;SDS011;9867;48.094;11.478;2023-05-07T04:28:15;4.27;;;2.80;;
19456;SDS011;9867;48.094;11.478;2023-05-07T04:30:43;3.20;;;2.30;;
19456;SDS011;9867;48.094;11.478;2023-05-07T04:33:12;3.33;;;2.60;;
19456;SDS011;9867;48.094;11.478;2023-05-07T04:35:44;6.77;;;2.83;;
19456;SDS011;9867;48.094;11.478;2023-05-07T04:38:13;5.67;;;2.80;;
19456;SDS011;9867;48.094;11.478;2023-05-07T04:40:41;3.23;;;2.70;;
19456;SDS011;9867;48.094;11.478;2023-05-07T04:43:13;4.20;;;2.50;;
19456;SDS011;9867;48.094;11.478;2023-05-07T04:45:46;2.77;;;2.53;;
19456;SDS011;9867;48.094;11.478;2023-05-07T04:48:16;2.97;;;2.47;;
19456;SDS011;9867;48.094;11.478;2023-05-07T04:50:48;2.80;;;2.60;;
19456;SDS011;9867;48.094;11.478;2023-05-07T04:53:17;2.70;;;2.50;;
19456;SDS011;9867;48.094;11.478;2023-05-07T04:55:47;4.63;;;2.60;;
19456;SDS011;9867;48.094;11.478;2023-05-07T04:58:15;3.23;;;2.70;;
19456;SDS011;9867;48.094;11.478;2023-05-07T05:00:45;3.47;;;3.03;;
19456;SDS011;9867;48.094;11.478;2023-05-07T05:03:13;3.00;;;2.80;;
19456;SDS011;9867;48.094;11.478;2023-05-07T05:05:41;3.00;;;2.77;;
19456;SDS011;9867;48.094;11.478;2023-05-07T05:08:10;4.20;;;3.27;;
19456;SDS011;9867;48.094;11.478;2023-05-07T05:10:41;3.13;;;2.70;;
19456;SDS011;9867;48.094;11.478;2023-05-07T05:13:10;3.90;;;3.10;;
19456;SDS011;9867;48.094;11.478;2023-05-07T05:15:40;3.33;;;2.90;;
19456;SDS011;9867;48.094;11.478;2023-05-07T05:18:08;4.83;;;2.93;;
19456;SDS011;9867;48.094;11.478;2023-05-07T05:20:38;3.30;;;3.00;;
19456;SDS011;9867;48.094;11.478;2023-05-07T05:23:07;5.57;;;3.10;;
19456;SDS011;9867;48.094;11.478;2023-05-07T05:25:37;4.00;;;2.87;;
19456;SDS011;9867;48.094;11.478;2023-05-07T05:28:11;5.03;;;3.30;;
19456;SDS011;9867;48.094;11.478;2023-05-07T05:30:39;4.13;;;3.03;;
19456;SDS011;9867;48.094;11.478;2023-05-07T05:33:08;5.20;;;3.00;;
19456;SDS011;9867;48.094;11.478;2023-05-07T05:35:37;4.33;;;3.20;;
19456;SDS011;9867;48.094;11.478;2023-05-07T05:38:09;4.23;;;2.93;;
19456;SDS011;9867;48.094;11.478;2023-05-07T05:40:39;4.63;;;2.80;;
19456;SDS011;9867;48.094;11.478;2023-05-07T05:43:07;3.70;;;2.80;;
19456;SDS011;9867;48.094;11.478;2023-05-07T05:45:37;5.23;;;3.20;;
19456;SDS011;9867;48.094;11.478;2023-05-07T05:48:05;5.67;;;2.93;;
19456;SDS011;9867;48.094;11.478;2023-05-07T05:50:33;3.43;;;3.13;;
19456;SDS011;9867;48.094;11.478;2023-05-07T05:53:03;6.43;;;3.37;;
19456;SDS011;9867;48.094;11.478;2023-05-07T05:55:32;4.90;;;3.10;;
19456;SDS011;9867;48.094;11.478;2023-05-07T05:58:01;4.37;;;3.57;;
19456;SDS011;9867;48.094;11.478;2023-05-07T06:00:35;3.90;;;3.60;;
19456;SDS011;9867;48.094;11.478;2023-05-07T06:03:05;4.20;;;3.70;;
19456;SDS011;9867;48.094;11.478;2023-05-07T06:05:34;4.57;;;3.27;;
19456;SDS011;9867;48.094;11.478;2023-05-07T06:08:02;6.03;;;4.30;;
19456;SDS011;9867;48.094;11.478;2023-05-07T06:10:32;3.97;;;3.67;;
19456;SDS011;9867;48.094;11.478;2023-05-07T06:13:02;4.33;;;3.67;;
19456;SDS011;9867;48.094;11.478;2023-05-07T06:15:31;4.40;;;4.00;;
19456;SDS011;9867;48.094;11.478;2023-05-07T06:18:04;5.30;;;3.60;;
19456;SDS011;9867;48.094;11.478;2023-05-07T06:20:32;3.70;;;3.40;;
19456;SDS011;9867;48.094;11.478;2023-05-07T06:23:03;3.73;;;3.40;;
19456;SDS011;9867;48.094;11.478;2023-05-07T06:25:33;3.43;;;3.13;;
19456;SDS011;9867;48.094;11.478;2023-05-07T06:28:02;7.10;;;3.10;;
19456;SDS011;9867;48.094;11.478;2023-05-07T06:30:32;5.13;;;4.00;;
19456;SDS011;9867;48.094;11.478;2023-05-07T06:32:59;3.67;;;3.00;;
19456;SDS011;9867;48.094;11.478;2023-05-07T06:35:28;4.40;;;3.23;;
19456;SDS011;9867;48.094;11.478;2023-05-07T06:37:56;3.07;;;2.77;;
19456;SDS011;9867;48.094;11.478;2023-05-07T06:40:26;2.97;;;2.73;;
19456;SDS011;9867;48.094;11.478;2023-05-07T06:42:55;2.80;;;2.60;;
19456;SDS011;9867;48.094;11.478;2023-05-07T06:45:45;2.97;;;2.77;;
19456;SDS011;9867;48.094;11.478;2023-05-07T06:48:13;4.10;;;3.70;;
19456;SDS011;9867;48.094;11.478;2023-05-07T06:50:57;6.17;;;3.00;;
19456;SDS011;9867;48.094;11.478;2023-05-07T06:53:26;4.03;;;3.67;;
19456;SDS011;9867;48.094;11.478;2023-05-07T06:55:55;5.10;;;3.20;;
19456;SDS011;9867;48.094;11.478;2023-05-07T06:58:24;4.90;;;4.50;;
19456;SDS011;9867;48.094;11.478;2023-05-07T07:00:53;5.13;;;4.23;;
19456;SDS011;9867;48.094;11.478;2023-05-07T07:03:22;4.43;;;3.00;;
19456;SDS011;9867;48.094;11.478;2023-05-07T07:05:51;3.20;;;2.53;;
19456;SDS011;9867;48.094;11.478;2023-05-07T07:08:19;2.90;;;2.70;;
19456;SDS011;9867;48.094;11.478;2023-05-07T07:10:49;3.00;;;2.67;;
19456;SDS011;9867;48.094;11.478;2023-05-07T07:13:17;3.97;;;2.47;;
19456;SDS011;9867;48.094;11.478;2023-05-07T07:15:45;3.20;;;2.90;;
19456;SDS011;9867;48.094;11.478;2023-05-07T07:18:15;3.87;;;3.07;;
19456;SDS011;9867;48.094;11.478;2023-05-07T07:20:45;5.97;;;5.20;;
19456;SDS011;9867;48.094;11.478;2023-05-07T07:23:12;3.43;;;2.73;;
19456;SDS011;9867;48.094;11.478;2023-05-07T07:25:40;4.43;;;2.93;;
19456;SDS011;9867;48.094;11.478;2023-05-07T07:28:09;4.37;;;3.97;;
19456;SDS011;9867;48.094;11.478;2023-05-07T07:30:38;4.37;;;3.07;;
19456;SDS011;9867;48.094;11.478;2023-05-07T07:33:06;2.53;;;2.37;;
19456;SDS011;9867;48.094;11.478;2023-05-07T07:35:38;3.40;;;2.67;;
19456;SDS011;9867;48.094;11.478;2023-05-07T07:38:06;2.80;;;2.50;;
19456;SDS011;9867;48.094;11.478;2023-05-07T07:40:34;3.10;;;2.70;;
19456;SDS011;9867;48.094;11.478;2023-05-07T07:43:04;7.90;;;2.70;;
19456;SDS011;9867;48.094;11.478;2023-05-07T07:45:32;5.87;;;2.37;;
19456;SDS011;9867;48.094;11.478;2023-05-07T07:48:00;4.07;;;2.50;;
19456;SDS011;9867;48.094;11.478;2023-05-07T07:50:32;3.27;;;2.73;;
19456;SDS011;9867;48.094;11.478;2023-05-07T07:53:12;3.90;;;2.50;;
19456;SDS011;9867;48.094;11.478;2023-05-07T07:55:41;2.93;;;2.63;;
19456;SDS011;9867;48.094;11.478;2023-05-07T07:58:12;2.77;;;2.57;;
19456;SDS011;9867;48.094;11.478;2023-05-07T08:00:40;2.70;;;2.50;;
19456;SDS011;9867;48.094;11.478;2023-05-07T08:03:09;2.80;;;2.47;;
19456;SDS011;9867;48.094;11.478;2023-05-07T08:05:41;3.67;;;2.47;;
19456;SDS011;9867;48.094;11.478;2023-05-07T08:08:09;4.53;;;2.57;;
19456;SDS011;9867;48.094;11.478;2023-05-07T08:10:40;2.47;;;2.27;;
19456;SDS011;9867;48.094;11.478;2023-05-07T08:13:15;3.77;;;2.40;;
19456;SDS011;9867;48.094;11.478;2023-05-07T08:15:44;2.77;;;2.40;;
19456;SDS011;9867;48.094;11.478;2023-05-07T08:18:13;5.27;;;2.80;;
19456;SDS011;9867;48.094;11.478;2023-05-07T08:20:42;3.47;;;2.97;;
19456;SDS011;9867;48.094;11.478;2023-05-07T08:23:14;2.80;;;2.60;;
19456;SDS011;9867;48.094;11.478;2023-05-07T08:25:45;4.07;;;2.63;;
19456;SDS011;9867;48.094;11.478;2023-05-07T08:28:15;4.03;;;2.40;;
19456;SDS011;9867;48.094;11.478;2023-05-07T08:30:43;3.10;;;2.37;;
19456;SDS011;9867;48.094;11.478;2023-05-07T08:33:10;5.17;;;2.80;;
19456;SDS011;9867;48.094;11.478;2023-05-07T08:35:38;5.40;;;2.50;;
19456;SDS011;9867;48.094;11.478;2023-05-07T08:38:07;2.67;;;2.47;;
19456;SDS011;9867;48.094;11.478;2023-05-07T08:40:36;2.80;;;2.60;;
19456;SDS011;9867;48.094;11.478;2023-05-07T08:43:12;4.03;;;3.07;;
19456;SDS011;9867;48.094;11.478;2023-05-07T08:45:42;3.17;;;2.10;;
19456;SDS011;9867;48.094;11.478;2023-05-07T08:48:16;2.50;;;2.30;;
19456;SDS011;9867;48.094;11.478;2023-05-07T08:50:57;3.63;;;2.33;;
19456;SDS011;9867;48.094;11.478;2023-05-07T08:53:25;3.00;;;2.57;;
19456;SDS011;9867;48.094;11.478;2023-05-07T08:55:53;4.07;;;2.30;;
19456;SDS011;9867;48.094;11.478;2023-05-07T08:58:23;4.43;;;2.70;;
19456;SDS011;9867;48.094;11.478;2023-05-07T09:00:51;3.13;;;2.60;;
19456;SDS011;9867;48.094;11.478;2023-05-07T09:03:23;2.87;;;2.33;;
19456;SDS011;9867;48.094;11.478;2023-05-07T09:05:53;2.60;;;2.30;;
19456;SDS011;9867;48.094;11.478;2023-05-07T09:08:24;3.17;;;2.30;;
19456;SDS011;9867;48.094;11.478;2023-05-07T09:10:54;4.27;;;2.17;;
19456;SDS011;9867;48.094;11.478;2023-05-07T09:13:24;4.80;;;2.30;;
19456;SDS011;9867;48.094;11.478;2023-05-07T09:15:52;3.80;;;2.17;;
19456;SDS011;9867;48.094;11.478;2023-05-07T09:18:23;3.37;;;2.20;;
19456;SDS011;9867;48.094;11.478;2023-05-07T09:20:54;3.83;;;2.40;;
19456;SDS011;9867;48.094;11.478;2023-05-07T09:23:23;4.27;;;2.20;;
19456;SDS011;9867;48.094;11.478;2023-05-07T09:25:52;3.30;;;2.33;;
19456;SDS011;9867;48.094;11.478;2023-05-07T09:28:32;2.17;;;1.93;;
19456;SDS011;9867;48.094;11.478;2023-05-07T09:31:00;3.07;;;2.17;;
19456;SDS011;9867;48.094;11.478;2023-05-07T09:33:28;2.73;;;2.17;;
19456;SDS011;9867;48.094;11.478;2023-05-07T09:36:01;3.83;;;2.20;;
19456;SDS011;9867;48.094;11.478;2023-05-07T09:38:31;1.93;;;1.83;;
19456;SDS011;9867;48.094;11.478;2023-05-07T09:41:02;2.97;;;1.97;;
19456;SDS011;9867;48.094;11.478;2023-05-07T09:43:38;2.17;;;1.90;;
19456;SDS011;9867;48.094;11.478;2023-05-07T09:46:11;4.60;;;2.20;;
19456;SDS011;9867;48.094;11.478;2023-05-07T09:48:45;3.20;;;2.90;;
19456;SDS011;9867;48.094;11.478;2023-05-07T09:51:18;3.13;;;1.70;;
19456;SDS011;9867;48.094;11.478;2023-05-07T09:53:54;2.87;;;1.77;;
19456;SDS011;9867;48.094;11.478;2023-05-07T09:56:24;1.80;;;1.67;;
19456;SDS011;9867;48.094;11.478;2023-05-07T09:58:55;3.37;;;2.13;;
19456;SDS011;9867;48.094;11.478;2023-05-07T10:01:25;2.63;;;2.13;;
19456;SDS011;9867;48.094;11.478;2023-05-07T10:03:54;2.77;;;1.70;;
19456;SDS011;9867;48.094;11.478;2023-05-07T10:06:24;2.30;;;2.10;;
19456;SDS011;9867;48.094;11.478;2023-05-07T10:08:52;2.20;;;2.00;;
19456;SDS011;9867;48.094;11.478;2023-05-07T10:11:22;2.43;;;2.20;;
19456;SDS011;9867;48.094;11.478;2023-05-07T10:13:50;1.80;;;1.70;;
19456;SDS011;9867;48.094;11.478;2023-05-07T10:16:22;3.13;;;1.83;;
19456;SDS011;9867;48.094;11.478;2023-05-07T10:18:51;2.73;;;2.33;;
19456;SDS011;9867;48.094;11.478;2023-05-07T10:21:22;2.10;;;1.73;;
19456;SDS011;9867;48.094;11.478;2023-05-07T10:23:57;3.40;;;2.10;;
19456;SDS011;9867;48.094;11.478;2023-05-07T10:26:28;3.37;;;2.40;;
19456;SDS011;9867;48.094;11.478;2023-05-07T10:28:59;2.50;;;1.80;;
19456;SDS011;9867;48.094;11.478;2023-05-07T10:34:27;2.30;;;2.10;;
19456;SDS011;9867;48.094;11.478;2023-05-07T10:37:00;2.43;;;1.87;;
19456;SDS011;9867;48.094;11.478;2023-05-07T10:39:30;2.80;;;2.17;;
19456;SDS011;9867;48.094;11.478;2023-05-07T10:42:07;3.23;;;1.90;;
19456;SDS011;9867;48.094;11.478;2023-05-07T10:44:36;3.27;;;2.00;;
19456;SDS011;9867;48.094;11.478;2023-05-07T10:47:10;2.67;;;2.00;;
19456;SDS011;9867;48.094;11.478;2023-05-07T10:56:25;2.67;;;1.90;;
19456;SDS011;9867;48.094;11.478;2023-05-07T10:59:30;4.27;;;1.90;;
19456;SDS011;9867;48.094;11.478;2023-05-07T11:02:09;1.90;;;1.70;;
19456;SDS011;9867;48.094;11.478;2023-05-07T11:04:58;2.07;;;1.80;;
19456;SDS011;9867;48.094;11.478;2023-05-07T11:07:53;4.27;;;2.73;;
19456;SDS011;9867;48.094;11.478;2023-05-07T11:10:27;3.83;;;1.87;;
19456;SDS011;9867;48.094;11.478;2023-05-07T11:16:32;2.77;;;1.93;;
19456;SDS011;9867;48.094;11.478;2023-05-07T11:19:21;3.37;;;1.90;;
19456;SDS011;9867;48.094;11.478;2023-05-07T11:25:33;2.13;;;1.97;;
19456;SDS011;9867;48.094;11.478;2023-05-07T11:28:16;2.87;;;2.00;;
19456;SDS011;9867;48.094;11.478;2023-05-07T11:30:52;1.77;;;1.63;;
19456;SDS011;9867;48.094;11.478;2023-05-07T11:33:20;3.30;;;2.17;;
19456;SDS011;9867;48.094;11.478;2023-05-07T11:35:54;2.97;;;1.70;;
19456;SDS011;9867;48.094;11.478;2023-05-07T11:38:28;2.30;;;1.70;;
19456;SDS011;9867;48.094;11.478;2023-05-07T11:40:57;3.27;;;1.70;;
19456;SDS011;9867;48.094;11.478;2023-05-07T11:43:27;1.80;;;1.70;;
19456;SDS011;9867;48.094;11.478;2023-05-07T11:45:54;2.63;;;2.07;;
19456;SDS011;9867;48.094;11.478;2023-05-07T11:48:32;2.07;;;1.80;;
19456;SDS011;9867;48.094;11.478;2023-05-07T11:51:01;3.37;;;1.87;;
19456;SDS011;9867;48.094;11.478;2023-05-07T11:53:35;5.10;;;2.03;;
19456;SDS011;9867;48.094;11.478;2023-05-07T11:56:07;4.70;;;1.90;;
19456;SDS011;9867;48.094;11.478;2023-05-07T11:58:36;3.00;;;1.80;;
19456;SDS011;9867;48.094;11.478;2023-05-07T12:01:04;3.10;;;2.23;;
19456;SDS011;9867;48.094;11.478;2023-05-07T12:03:35;2.57;;;2.37;;
19456;SDS011;9867;48.094;11.478;2023-05-07T12:06:06;3.67;;;2.20;;
19456;SDS011;9867;48.094;11.478;2023-05-07T12:08:36;2.33;;;2.13;;
19456;SDS011;9867;48.094;11.478;2023-05-07T12:11:06;2.97;;;2.30;;
19456;SDS011;9867;48.094;11.478;2023-05-07T12:13:35;3.13;;;2.57;;
19456;SDS011;9867;48.094;11.478;2023-05-07T12:16:04;3.23;;;2.43;;
19456;SDS011;9867;48.094;11.478;2023-05-07T12:18:34;2.40;;;2.20;;
19456;SDS011;9867;48.094;11.478;2023-05-07T12:21:03;2.50;;;2.30;;
19456;SDS011;9867;48.094;11.478;2023-05-07T12:23:34;3.00;;;2.40;;
19456;SDS011;9867;48.094;11.478;2023-05-07T12:26:03;3.40;;;2.50;;
19456;SDS011;9867;48.094;11.478;2023-05-07T12:28:37;2.27;;;2.07;;
19456;SDS011;9867;48.094;11.478;2023-05-07T12:31:06;2.60;;;2.40;;
19456;SDS011;9867;48.094;11.478;2023-05-07T12:33:35;4.07;;;2.70;;
19456;SDS011;9867;48.094;11.478;2023-05-07T12:36:04;2.97;;;2.20;;
19456;SDS011;9867;48.094;11.478;2023-05-07T12:38:36;3.13;;;2.10;;
19456;SDS011;9867;48.094;11.478;2023-05-07T12:41:06;3.77;;;2.50;;
19456;SDS011;9867;48.094;11.478;2023-05-07T12:43:36;2.60;;;2.40;;
19456;SDS011;9867;48.094;11.478;2023-05-07T12:46:05;2.83;;;2.20;;
19456;SDS011;9867;48.094;11.478;2023-05-07T12:48:36;3.47;;;2.20;;
19456;SDS011;9867;48.094;11.478;2023-05-07T12:51:05;4.07;;;2.63;;
19456;SDS011;9867;48.094;11.478;2023-05-07T12:53:39;2.67;;;2.47;;
19456;SDS011;9867;48.094;11.478;2023-05-07T12:56:07;2.47;;;2.13;;
19456;SDS011;9867;48.094;11.478;2023-05-07T12:58:35;2.30;;;2.10;;
19456;SDS011;9867;48.094;11.478;2023-05-07T13:01:04;2.43;;;2.23;;
19456;SDS011;9867;48.094;11.478;2023-05-07T13:03:34;3.67;;;2.63;;
19456;SDS011;9867;48.094;11.478;2023-05-07T13:06:03;2.83;;;2.03;;
19456;SDS011;9867;48.094;11.478;2023-05-07T13:08:33;2.30;;;2.10;;
19456;SDS011;9867;48.094;11.478;2023-05-07T13:11:04;2.93;;;2.10;;
19456;SDS011;9867;48.094;11.478;2023-05-07T13:13:32;2.47;;;2.20;;
19456;SDS011;9867;48.094;11.478;2023-05-07T13:16:01;2.30;;;2.10;;
19456;SDS011;9867;48.094;11.478;2023-05-07T13:18:30;2.03;;;1.87;;
19456;SDS011;9867;48.094;11.478;2023-05-07T13:20:59;4.57;;;2.07;;
19456;SDS011;9867;48.094;11.478;2023-05-07T13:23:28;3.13;;;2.17;;
19456;SDS011;9867;48.094;11.478;2023-05-07T13:25:56;2.60;;;1.90;;
19456;SDS011;9867;48.094;11.478;2023-05-07T13:28:25;2.37;;;2.03;;
19456;SDS011;9867;48.094;11.478;2023-05-07T13:30:53;2.37;;;2.17;;
19456;SDS011;9867;48.094;11.478;2023-05-07T13:33:21;2.13;;;1.93;;
19456;SDS011;9867;48.094;11.478;2023-05-07T13:35:50;3.30;;;2.20;;
19456;SDS011;9867;48.094;11.478;2023-05-07T13:38:18;2.47;;;2.20;;
19456;SDS011;9867;48.094;11.478;2023-05-07T13:40:47;2.90;;;1.90;;
19456;SDS011;9867;48.094;11.478;2023-05-07T13:43:15;1.90;;;1.80;;
19456;SDS011;9867;48.094;11.478;2023-05-07T13:45:49;2.50;;;1.83;;
19456;SDS011;9867;48.094;11.478;2023-05-07T13:48:17;2.40;;;2.20;;
19456;SDS011;9867;48.094;11.478;2023-05-07T13:50:45;2.07;;;1.93;;
19456;SDS011;9867;48.094;11.478;2023-05-07T13:53:13;2.30;;;2.10;;
19456;SDS011;9867;48.094;11.478;2023-05-07T13:55:44;2.37;;;1.93;;
19456;SDS011;9867;48.094;11.478;2023-05-07T13:58:13;3.50;;;2.10;;
19456;SDS011;9867;48.094;11.478;2023-05-07T14:00:41;2.97;;;1.93;;
19456;SDS011;9867;48.094;11.478;2023-05-07T14:03:10;2.20;;;2.00;;
19456;SDS011;9867;48.094;11.478;2023-05-07T14:05:38;1.67;;;1.57;;
19456;SDS011;9867;48.094;11.478;2023-05-07T14:08:09;1.90;;;1.70;;
19456;SDS011;9867;48.094;11.478;2023-05-07T14:10:37;2.80;;;1.70;;
19456;SDS011;9867;48.094;11.478;2023-05-07T14:13:05;2.03;;;1.90;;
19456;SDS011;9867;48.094;11.478;2023-05-07T14:15:33;3.63;;;1.83;;
19456;SDS011;9867;48.094;11.478;2023-05-07T14:18:03;1.80;;;1.60;;
19456;SDS011;9867;48.094;11.478;2023-05-07T14:20:32;2.47;;;2.20;;
19456;SDS011;9867;48.094;11.478;2023-05-07T14:23:03;2.80;;;2.17;;
19456;SDS011;9867;48.094;11.478;2023-05-07T14:25:30;2.53;;;1.70;;
19456;SDS011;9867;48.094;11.478;2023-05-07T14:27:58;3.63;;;1.77;;
19456;SDS011;9867;48.094;11.478;2023-05-07T14:30:26;1.90;;;1.80;;
19456;SDS011;9867;48.094;11.478;2023-05-07T14:32:54;1.77;;;1.67;;
19456;SDS011;9867;48.094;11.478;2023-05-07T14:35:23;2.77;;;1.90;;
19456;SDS011;9867;48.094;11.478;2023-05-07T14:37:53;2.97;;;2.00;;
19456;SDS011;9867;48.094;11.478;2023-05-07T14:40:20;3.83;;;2.23;;
19456;SDS011;9867;48.094;11.478;2023-05-07T14:42:48;3.93;;;2.30;;
19456;SDS011;9867;48.094;11.478;2023-05-07T14:45:16;1.73;;;1.63;;
19456;SDS011;9867;48.094;11.478;2023-05-07T14:47:44;2.77;;;2.00;;
19456;SDS011;9867;48.094;11.478;2023-05-07T14:50:12;1.70;;;1.60;;
19456;SDS011;9867;48.094;11.478;2023-05-07T14:52:40;1.90;;;1.80;;
19456;SDS011;9867;48.094;11.478;2023-05-07T14:55:09;2.10;;;1.90;;
19456;SDS011;9867;48.094;11.478;2023-05-07T14:57:38;2.60;;;2.40;;
19456;SDS011;9867;48.094;11.478;2023-05-07T15:00:07;2.30;;;1.90;;
19456;SDS011;9867;48.094;11.478;2023-05-07T15:02:37;4.77;;;2.20;;
19456;SDS011;9867;48.094;11.478;2023-05-07T15:05:06;3.00;;;1.90;;
19456;SDS011;9867;48.094;11.478;2023-05-07T15:07:34;2.40;;;2.00;;
19456;SDS011;9867;48.094;11.478;2023-05-07T15:10:03;2.70;;;2.10;;
19456;SDS011;9867;48.094;11.478;2023-05-07T15:12:44;2.70;;;2.50;;
19456;SDS011;9867;48.094;11.478;2023-05-07T15:15:12;2.73;;;2.30;;
19456;SDS011;9867;48.094;11.478;2023-05-07T15:17:40;2.70;;;2.30;;
19456;SDS011;9867;48.094;11.478;2023-05-07T15:20:08;3.53;;;2.53;;
19456;SDS011;9867;48.094;11.478;2023-05-07T15:22:37;6.10;;;2.40;;
19456;SDS011;9867;48.094;11.478;2023-05-07T15:25:05;2.90;;;2.23;;